Terminal Aerodrome Forecast
Issued by NWS Brownsville, TX

Home | Current Version | Previous Version | Text Only | Print | Product List | Glossary On
Versions: 1 2 3 4 5 6 7 8 9 10 11 12 13 14 15 16 17
000
FTUS44 KBRO 280528
TAFHRL
TAF
KHRL 280528Z 2806/2906 04006KT 5SM BR OVC006
      TEMPO 2809/2813 1SM BR
     FM281400 33012G20KT P6SM SCT250
     FM281700 34020G30KT P6SM FEW050 BKN250
     FM290000 01012G17KT P6SM FEW050=

USA.gov is the U.S. government's official web portal to all federal, state and local government web resources and services.